Time;durP1;ratioP1;P1;durP2;ratioP2;P2;SDS_P1;SDS_P2;PMS_P1;PMS_P2;Temp;Humidity;BMP_temperature;BMP_pressure;BME280_temperature;BME280_humidity;BME280_pressure;Samples;Min_cycle;Max_cycle;Signal;HPM_P1;HPM_P2
2022/10/22 00:02:19;;;;;;;9.85;6.80;;;;;;;6.98;69.46;100258.03;5040039;28;20021;-59
2022/10/22 00:04:49;;;;;;;9.57;7.18;;;;;;;7.00;68.95;100268.59;5053664;28;20029;-61
2022/10/22 00:07:19;;;;;;;7.57;6.20;;;;;;;6.79;69.59;100234.31;5051890;28;20025;-60
2022/10/22 00:09:45;;;;;;;11.25;6.07;;;;;;;6.98;69.45;100263.34;5069479;28;20029;-59
2022/10/22 00:12:11;;;;;;;8.00;5.70;;;;;;;6.95;68.83;100244.91;5052738;28;20041;-59
2022/10/22 00:14:37;;;;;;;9.20;5.85;;;;;;;7.02;68.85;100264.03;5052959;28;20087;-60
2022/10/22 00:17:03;;;;;;;6.82;5.60;;;;;;;7.03;68.50;100258.63;5053464;28;20021;-58
2022/10/22 00:19:28;;;;;;;9.43;5.35;;;;;;;7.04;68.68;100249.69;5038554;28;20112;-59
2022/10/22 00:21:54;;;;;;;6.68;5.20;;;;;;;6.86;68.42;100222.34;5033635;28;20109;-59
2022/10/22 00:24:19;;;;;;;6.78;5.07;;;;;;;6.85;68.49;100211.81;5033788;28;20025;-57
2022/10/22 00:26:45;;;;;;;7.00;4.97;;;;;;;7.02;68.20;100245.41;5037642;28;20112;-58
2022/10/22 00:29:10;;;;;;;7.45;5.20;;;;;;;7.07;68.11;100248.66;5053191;28;20111;-59
2022/10/22 00:31:36;;;;;;;7.10;4.60;;;;;;;7.08;68.14;100250.34;5052435;28;20075;-59
2022/10/22 00:34:02;;;;;;;6.15;4.40;;;;;;;7.06;68.16;100243.44;5053153;28;20065;-59
2022/10/22 00:36:27;;;;;;;6.63;4.38;;;;;;;7.03;68.34;100248.00;5052479;28;20418;-53
2022/10/22 00:38:53;;;;;;;5.68;4.70;;;;;;;7.07;68.03;100237.16;5052580;28;20416;-60
2022/10/22 00:41:18;;;;;;;8.20;4.43;;;;;;;6.95;67.59;100220.09;5038093;28;443883;-55
2022/10/22 00:43:59;;;;;;;6.82;4.50;;;;;;;7.16;67.88;100236.59;5053161;28;20059;-59
2022/10/22 00:46:25;;;;;;;6.82;4.70;;;;;;;7.07;67.59;100239.81;5044961;28;20026;-59
2022/10/22 00:48:52;;;;;;;5.13;3.90;;;;;;;7.04;67.37;100235.53;5034301;28;20342;-56
2022/10/22 00:51:20;;;;;;;6.40;4.00;;;;;;;7.04;67.25;100243.50;5035702;28;20037;-57
2022/10/22 00:53:52;;;;;;;4.80;3.80;;;;;;;7.06;67.60;100238.09;5053957;28;20238;-54
2022/10/22 00:56:19;;;;;;;6.32;3.85;;;;;;;7.05;67.76;100242.56;5053755;28;20112;-60
2022/10/22 00:58:51;;;;;;;5.15;4.30;;;;;;;7.09;67.89;100244.09;5053665;28;20033;-55
2022/10/22 01:01:20;;;;;;;8.63;4.35;;;;;;;6.87;67.84;100216.09;5053638;28;20331;-58
2022/10/22 01:03:47;;;;;;;8.75;4.93;;;;;;;7.08;68.05;100246.84;5053570;28;20063;-55
2022/10/22 01:06:22;;;;;;;5.97;4.35;;;;;;;7.12;68.03;100243.94;5039677;28;20120;-59
2022/10/22 01:09:12;;;;;;;6.47;4.57;;;;;;;7.22;67.93;100240.69;5033931;28;20029;-56
2022/10/22 01:12:02;;;;;;;7.65;5.00;;;;;;;7.21;68.05;100245.16;5029797;28;20046;-58
2022/10/22 01:14:30;;;;;;;7.38;5.10;;;;;;;7.14;67.78;100238.50;5032824;28;20075;-59
2022/10/22 01:17:26;;;;;;;7.75;4.78;;;;;;;7.18;67.76;100246.22;5043415;28;20060;-65
2022/10/22 01:20:07;;;;;;;;;;;;;;;7.51;67.30;100243.41;5039984;28;20063;-58
2022/10/22 01:22:39;;;;;;;5.57;4.10;;;;;;;7.31;66.97;100250.78;5053579;28;20235;-60
2022/10/22 01:25:18;;;;;;;10.52;4.90;;;;;;;7.09;67.20;100213.94;5051618;28;20363;-55
2022/10/22 01:28:18;;;;;;;7.47;4.60;;;;;;;7.25;67.85;100246.72;5053222;28;20028;-60
2022/10/22 01:30:45;;;;;;;8.07;4.80;;;;;;;7.16;67.50;100241.91;5053305;28;20033;-58
2022/10/22 01:33:16;;;;;;;7.35;5.22;;;;;;;7.18;68.12;100245.34;5052085;28;20397;-59
2022/10/22 01:35:43;;;;;;;8.05;5.35;;;;;;;7.16;67.92;100248.13;5052903;28;20044;-61
2022/10/22 01:38:16;;;;;;;7.50;5.50;;;;;;;7.17;67.80;100249.84;5053388;28;20025;-61
2022/10/22 01:40:42;;;;;;;11.68;5.82;;;;;;;7.15;67.93;100245.53;5052166;28;20106;-59
2022/10/22 01:43:09;;;;;;;9.80;6.25;;;;;;;7.12;68.05;100241.25;5033092;28;20032;-59
2022/10/22 01:45:40;;;;;;;8.00;6.00;;;;;;;7.19;68.16;100252.38;5032350;28;20402;-60
2022/10/22 01:48:34;;;;;;;8.85;5.95;;;;;;;7.23;68.15;100250.41;5033450;28;20056;-57
2022/10/22 01:51:15;;;;;;;7.90;5.85;;;;;;;7.24;68.51;100249.47;5031943;28;20037;-60
2022/10/22 01:53:58;;;;;;;8.85;6.10;;;;;;;7.24;68.50;100246.78;5032651;28;20064;-60
2022/10/22 01:56:45;;;;;;;7.93;6.03;;;;;;;7.24;68.47;100249.47;5049277;28;20037;-59
2022/10/22 01:59:16;;;;;;;8.65;5.90;;;;;;;7.16;68.21;100250.78;5045347;28;20078;-57
2022/10/22 02:01:54;;;;;;;10.38;6.93;;;;;;;7.18;68.36;100256.00;5052484;28;20482;-61
2022/10/22 02:04:27;;;;;;;8.63;6.40;;;;;;;7.11;68.38;100254.66;5034134;28;20048;-58
2022/10/22 02:06:58;;;;;;;9.30;7.03;;;;;;;7.09;68.47;100251.22;5032886;28;20063;-64
2022/10/22 02:09:27;;;;;;;10.65;6.97;;;;;;;7.02;68.41;100240.94;5033128;28;20056;-62
2022/10/22 02:11:55;;;;;;;9.93;7.70;;;;;;;7.00;68.69;100253.50;5032289;28;20041;-60
2022/10/22 02:14:21;;;;;;;13.15;8.45;;;;;;;6.96;68.71;100248.44;5031668;28;20447;-61
2022/10/22 02:16:49;;;;;;;9.90;7.80;;;;;;;6.99;68.55;100256.25;5032852;28;20037;-58
2022/10/22 02:19:18;;;;;;;9.60;7.38;;;;;;;6.99;68.61;100262.44;5047070;28;20064;-60
2022/10/22 02:21:44;;;;;;;8.90;7.25;;;;;;;7.01;68.61;100263.19;5047910;28;20048;-57
2022/10/22 02:24:10;;;;;;;13.65;7.80;;;;;;;7.01;68.58;100255.22;5032687;28;20029;-58
2022/10/22 02:26:44;;;;;;;9.98;8.02;;;;;;;7.06;68.72;100262.91;5032813;28;20061;-58
2022/10/22 02:29:29;;;;;;;11.05;8.57;;;;;;;7.11;68.67;100259.97;5051213;28;20037;-56
2022/10/22 02:31:57;;;;;;;11.85;8.50;;;;;;;7.06;68.48;100262.06;5052257;28;20035;-60
2022/10/22 02:34:28;;;;;;;10.05;7.82;;;;;;;7.07;68.40;100258.44;5052331;28;20053;-58
2022/10/22 02:36:55;;;;;;;10.73;7.35;;;;;;;6.86;68.77;100242.78;5052084;28;20378;-58
2022/10/22 02:39:20;;;;;;;11.13;8.35;;;;;;;7.00;68.56;100272.13;5066484;28;20043;-56
2022/10/22 02:41:47;;;;;;;14.20;7.72;;;;;;;6.98;68.87;100266.00;5030854;28;20045;-56
2022/10/22 02:44:13;;;;;;;9.93;7.45;;;;;;;7.03;68.85;100269.28;5032258;28;20048;-56
2022/10/22 02:46:39;;;;;;;10.05;7.80;;;;;;;7.07;68.56;100274.44;5032368;28;20029;-62
2022/10/22 02:49:05;;;;;;;8.20;6.88;;;;;;;7.09;68.53;100277.84;5044168;28;20440;-63
2022/10/22 02:51:30;;;;;;;10.25;7.38;;;;;;;7.08;68.35;100276.16;5051205;28;20087;-69
2022/10/22 02:53:56;;;;;;;8.13;6.82;;;;;;;7.08;68.64;100281.47;5066910;28;20036;-62
2022/10/22 02:56:21;;;;;;;10.00;7.93;;;;;;;7.02;68.70;100272.91;5051009;28;20421;-61
2022/10/22 02:58:47;;;;;;;11.10;7.20;;;;;;;6.99;68.82;100282.84;5051632;28;20032;-61
2022/10/22 03:01:12;;;;;;;10.85;7.18;;;;;;;6.99;68.88;100275.75;5050525;28;20104;-63
2022/10/22 03:03:38;;;;;;;8.65;6.80;;;;;;;6.99;68.82;100273.09;5050875;28;20033;-61
2022/10/22 03:06:03;;;;;;;12.23;8.13;;;;;;;7.00;68.64;100277.47;5050866;28;20041;-63
2022/10/22 03:08:29;;;;;;;9.98;7.03;;;;;;;6.96;69.16;100278.56;5051853;28;20470;-62
2022/10/22 03:10:54;;;;;;;10.15;7.43;;;;;;;6.97;69.13;100274.94;5051713;28;20364;-61
2022/10/22 03:13:20;;;;;;;10.73;7.80;;;;;;;6.97;68.93;100274.09;5051649;28;20112;-61
2022/10/22 03:15:50;;;;;;;9.68;7.75;;;;;;;7.01;69.10;100275.63;5051756;28;20033;-62
2022/10/22 03:18:16;;;;;;;10.98;7.88;;;;;;;6.82;69.23;100249.25;5038435;28;20042;-62
2022/10/22 03:20:41;;;;;;;9.73;7.45;;;;;;;7.00;69.32;100276.59;5048154;28;20037;-62
2022/10/22 03:23:08;;;;;;;14.45;7.45;;;;;;;6.96;69.39;100267.91;5051781;28;20091;-61
2022/10/22 03:25:34;;;;;;;9.93;8.23;;;;;;;6.79;69.57;100242.28;5067629;28;20036;-67
2022/10/22 03:28:04;;;;;;;10.77;7.90;;;;;;;6.97;69.53;100271.44;5052164;28;20040;-63
2022/10/22 03:30:29;;;;;;;11.55;7.20;;;;;;;6.95;69.21;100271.53;5067607;28;20033;-61
2022/10/22 03:32:55;;;;;;;9.13;7.30;;;;;;;6.95;69.40;100268.84;5050821;28;20033;-61
2022/10/22 03:35:20;;;;;;;9.13;6.68;;;;;;;6.75;69.26;100233.66;5055133;28;20037;-64
2022/10/22 03:37:46;;;;;;;10.23;6.45;;;;;;;6.96;69.22;100267.06;5054308;28;20029;-64
2022/10/22 03:40:12;;;;;;;8.25;6.63;;;;;;;6.88;69.51;100264.84;5053600;28;20040;-61
2022/10/22 03:42:40;;;;;;;10.45;6.25;;;;;;;6.95;69.24;100273.34;5054865;28;20210;-61
2022/10/22 03:45:07;;;;;;;8.80;5.68;;;;;;;6.72;69.46;100243.59;5055304;28;20072;-61
2022/10/22 03:47:33;;;;;;;8.02;5.63;;;;;;;6.90;69.47;100273.59;5053773;28;20025;-62
2022/10/22 03:49:58;;;;;;;8.20;6.07;;;;;;;6.88;69.44;100260.41;5054075;28;20036;-62
2022/10/22 03:52:24;;;;;;;6.82;5.85;;;;;;;6.92;69.52;100269.03;5055142;28;20036;-62
2022/10/22 03:54:49;;;;;;;8.70;5.88;;;;;;;6.93;69.30;100276.06;5054250;28;20451;-62
2022/10/22 03:57:15;;;;;;;8.02;6.43;;;;;;;6.94;69.17;100272.47;5053807;28;20060;-65
2022/10/22 03:59:43;;;;;;;7.80;6.00;;;;;;;6.98;69.29;100276.66;5053753;28;20025;-65
2022/10/22 04:02:09;;;;;;;8.20;6.60;;;;;;;6.93;69.25;100278.75;5035529;28;20037;-67
2022/10/22 04:04:36;;;;;;;7.28;6.03;;;;;;;6.90;69.44;100268.28;5035096;28;20072;-76
2022/10/22 04:07:01;;;;;;;8.63;6.20;;;;;;;6.90;69.15;100273.59;5036172;28;20042;-65
2022/10/22 04:09:30;;;;;;;7.10;6.07;;;;;;;6.82;69.34;100255.41;5035053;28;20038;-65
2022/10/22 04:11:56;;;;;;;8.55;6.47;;;;;;;6.91;69.53;100261.16;5035478;28;20037;-71
2022/10/22 04:14:21;;;;;;;8.82;6.80;;;;;;;6.91;69.56;100263.81;5035246;28;20029;-61
2022/10/22 04:16:47;;;;;;;8.88;6.38;;;;;;;6.88;69.59;100268.38;5034449;28;20041;-61
2022/10/22 04:19:12;;;;;;;10.18;6.82;;;;;;;6.88;69.55;100271.03;5049477;28;20094;-66
2022/10/22 04:21:38;;;;;;;7.38;5.93;;;;;;;6.89;70.05;100272.75;5054305;28;20041;-58
2022/10/22 04:24:03;;;;;;;8.45;6.40;;;;;;;6.90;70.03;100273.59;5054926;28;20028;-67
2022/10/22 04:26:29;;;;;;;8.07;6.63;;;;;;;6.76;69.99;100245.13;5054361;28;20320;-63
2022/10/22 04:28:54;;;;;;;8.55;6.45;;;;;;;6.92;69.83;100266.38;5054327;28;20033;-61
2022/10/22 04:31:22;;;;;;;9.80;5.95;;;;;;;6.94;69.88;100272.47;5064064;28;20475;-61
2022/10/22 04:33:54;;;;;;;6.38;5.30;;;;;;;6.98;69.91;100273.16;5044891;28;20539;-63
2022/10/22 04:36:20;;;;;;;7.07;5.75;;;;;;;6.97;69.97;100280.28;5054254;28;20024;-62
2022/10/22 04:38:50;;;;;;;7.55;5.97;;;;;;;7.01;69.82;100279.19;5040325;28;20064;-60
2022/10/22 04:41:22;;;;;;;8.02;6.25;;;;;;;7.01;69.92;100273.84;5034672;28;20045;-61
2022/10/22 04:43:48;;;;;;;9.52;6.22;;;;;;;7.07;69.43;100280.59;5034222;28;20188;-60
2022/10/22 04:46:15;;;;;;;9.68;6.35;;;;;;;7.03;69.48;100279.94;5032915;28;20116;-61
2022/10/22 04:48:41;;;;;;;8.00;5.47;;;;;;;7.01;69.42;100283.63;5042147;28;20467;-61
2022/10/22 04:51:10;;;;;;;6.20;5.50;;;;;;;7.10;69.35;100291.06;5041301;28;20087;-64
2022/10/22 04:53:36;;;;;;;9.95;5.70;;;;;;;7.09;69.63;100283.19;5033436;28;20314;-59
2022/10/22 04:56:09;;;;;;;7.13;5.93;;;;;;;7.20;69.52;100285.22;5049685;28;20032;-60
2022/10/22 04:58:35;;;;;;;7.55;5.70;;;;;;;7.12;69.01;100283.00;5034271;28;20090;-63
2022/10/22 05:01:15;;;;;;;8.13;5.03;;;;;;;7.22;69.04;100305.47;5033859;28;20432;-63
2022/10/22 05:03:41;;;;;;;7.03;5.30;;;;;;;7.19;68.83;100295.00;5040582;28;20036;-62
2022/10/22 05:06:08;;;;;;;6.07;5.15;;;;;;;7.20;68.67;100295.88;5054000;28;20029;-62
2022/10/22 05:08:33;;;;;;;9.65;5.70;;;;;;;7.21;68.74;100287.75;5051731;28;20431;-62
2022/10/22 05:10:59;;;;;;;6.07;5.00;;;;;;;7.21;68.61;100282.44;5052668;28;20049;-61
2022/10/22 05:13:24;;;;;;;7.63;5.13;;;;;;;7.28;68.79;100293.59;5053533;28;20094;-62
2022/10/22 05:15:50;;;;;;;5.75;4.88;;;;;;;7.23;68.31;100279.69;5052146;28;20083;-62
2022/10/22 05:18:16;;;;;;;6.72;4.90;;;;;;;7.33;68.46;100289.72;5050502;28;20032;-62
2022/10/22 05:20:42;;;;;;;6.25;4.70;;;;;;;7.39;68.41;100295.63;5053535;28;20036;-61
2022/10/22 05:23:07;;;;;;;6.82;4.72;;;;;;;7.44;67.91;100294.41;5053619;28;20041;-62
2022/10/22 05:25:39;;;;;;;10.98;4.28;;;;;;;7.52;67.84;100299.28;5053164;28;20133;-61
2022/10/22 05:28:04;;;;;;;5.60;4.47;;;;;;;7.50;67.40;100293.19;5053398;28;20509;-62
2022/10/22 05:30:30;;;;;;;5.82;4.35;;;;;;;7.55;67.25;100299.09;5053359;28;20041;-63
2022/10/22 05:32:55;;;;;;;5.22;4.00;;;;;;;7.56;67.31;100308.78;5050216;28;20146;-61
2022/10/22 05:35:21;;;;;;;6.95;4.75;;;;;;;7.54;67.26;100294.72;5036010;28;20037;-63
2022/10/22 05:37:46;;;;;;;7.20;5.25;;;;;;;7.62;67.16;100302.25;5033633;28;20512;-63
2022/10/22 05:40:12;;;;;;;6.00;4.72;;;;;;;7.64;67.33;100304.81;5048982;28;20095;-62
2022/10/22 05:42:38;;;;;;;8.90;5.05;;;;;;;7.67;67.08;100305.47;5033015;28;20080;-62
2022/10/22 05:45:04;;;;;;;6.82;5.07;;;;;;;7.79;67.11;100314.53;5051767;28;20532;-62
2022/10/22 05:47:30;;;;;;;7.40;5.18;;;;;;;7.85;66.49;100307.97;5053438;28;20059;-61
2022/10/22 05:49:58;;;;;;;8.20;5.70;;;;;;;7.69;66.37;100266.25;5051883;28;20420;-62
2022/10/22 05:52:23;;;;;;;6.82;5.10;;;;;;;7.88;66.37;100278.47;5051420;28;20098;-64
2022/10/22 05:54:49;;;;;;;7.68;4.78;;;;;;;8.13;65.76;100301.75;5038590;28;20029;-62
2022/10/22 05:57:14;;;;;;;6.55;5.32;;;;;;;8.28;65.27;100307.09;5031684;28;20045;-62
2022/10/22 05:59:40;;;;;;;6.43;4.88;;;;;;;8.32;64.38;100305.94;5047914;28;20040;-62
2022/10/22 06:02:09;;;;;;;7.40;5.10;;;;;;;8.35;64.37;100310.25;5051971;28;20044;-63
2022/10/22 06:04:35;;;;;;;8.88;6.00;;;;;;;8.36;64.34;100307.47;5052474;28;20024;-62
2022/10/22 06:07:01;;;;;;;7.65;5.70;;;;;;;8.44;64.01;100307.84;5047404;28;20059;-62
2022/10/22 06:09:34;;;;;;;11.90;5.70;;;;;;;8.74;63.35;100316.66;5049982;28;20344;-64
2022/10/22 06:11:59;;;;;;;7.25;6.00;;;;;;;9.10;62.22;100307.19;5051997;28;20094;-63
2022/10/22 06:14:25;;;;;;;10.00;5.90;;;;;;;9.61;60.87;100309.06;5051575;28;20032;-62
2022/10/22 06:16:52;;;;;;;8.48;6.03;;;;;;;10.10;59.23;100303.91;5052726;28;20029;-63
2022/10/22 06:19:20;;;;;;;10.50;6.63;;;;;;;10.53;58.07;100312.53;5039139;28;20025;-64
2022/10/22 06:21:46;;;;;;;8.38;6.22;;;;;;;10.70;57.61;100316.66;5030666;28;20044;-63
2022/10/22 06:24:12;;;;;;;10.60;6.05;;;;;;;10.68;56.94;100316.78;5030858;28;20060;-64
2022/10/22 06:26:39;;;;;;;7.22;5.40;;;;;;;10.52;57.04;100318.88;5034741;28;20065;-63
2022/10/22 06:29:05;;;;;;;5.95;4.90;;;;;;;10.11;57.65;100280.72;5032340;28;20030;-66
2022/10/22 06:31:35;;;;;;;9.65;5.88;;;;;;;10.08;58.01;100305.00;5031542;28;20036;-64
2022/10/22 06:34:07;;;;;;;7.20;5.53;;;;;;;10.05;58.69;100314.09;5042218;28;20029;-63
2022/10/22 06:36:32;;;;;;;12.50;5.75;;;;;;;9.91;58.27;100307.06;5050435;28;20044;-63
2022/10/22 06:38:58;;;;;;;9.30;5.68;;;;;;;9.91;58.64;100313.28;5050380;28;20036;-62
2022/10/22 06:41:24;;;;;;;10.63;5.80;;;;;;;9.77;58.90;100310.69;5050460;28;20045;-63
2022/10/22 06:43:49;;;;;;;13.70;5.50;;;;;;;9.75;58.72;100317.97;5042617;28;20108;-64
2022/10/22 06:46:18;;;;;;;8.68;4.65;;;;;;;9.67;58.47;100314.97;5031933;28;20117;-62
2022/10/22 06:48:53;;;;;;;8.30;4.13;;;;;;;9.69;58.40;100323.75;5032239;28;20144;-67
2022/10/22 06:51:19;;;;;;;8.48;3.90;;;;;;;9.66;58.33;100321.28;5033804;28;20071;-63
2022/10/22 06:53:45;;;;;;;8.10;3.85;;;;;;;9.71;58.24;100333.34;5032777;28;20116;-64
2022/10/22 06:56:14;;;;;;;4.90;3.50;;;;;;;9.73;58.40;100325.25;5032176;28;20383;-64
2022/10/22 06:58:40;;;;;;;5.10;3.33;;;;;;;9.79;58.02;100324.81;5043045;28;20029;-62
2022/10/22 07:01:09;;;;;;;6.07;3.83;;;;;;;9.86;57.38;100326.09;5051019;28;20029;-63
2022/10/22 07:03:35;;;;;;;12.40;4.80;;;;;;;9.99;56.91;100333.25;5048865;28;20118;-63
2022/10/22 07:06:06;;;;;;;12.63;4.88;;;;;;;10.14;57.42;100331.31;5048998;28;20032;-62
2022/10/22 07:08:32;;;;;;;10.45;5.18;;;;;;;10.17;56.72;100326.63;5052126;28;20029;-64
2022/10/22 07:11:09;;;;;;;8.15;5.28;;;;;;;10.39;57.16;100343.81;5044364;28;20084;-63
2022/10/22 07:13:34;;;;;;;8.20;4.93;;;;;;;10.32;57.29;100339.84;5052858;28;20102;-64
2022/10/22 07:16:00;;;;;;;7.53;4.95;;;;;;;10.28;58.12;100341.03;5050502;28;20037;-63
2022/10/22 07:18:26;;;;;;;7.70;4.43;;;;;;;10.15;59.13;100320.53;5055425;28;20091;-60
2022/10/22 07:20:52;;;;;;;10.52;5.32;;;;;;;10.41;58.30;100339.25;5054034;28;20045;-66
2022/10/22 07:23:17;;;;;;;9.65;5.65;;;;;;;10.62;57.82;100347.53;5054325;28;20029;-65
2022/10/22 07:25:43;;;;;;;15.68;6.93;;;;;;;10.82;56.34;100339.88;5052633;28;20060;-65
2022/10/22 07:28:08;;;;;;;23.63;7.03;;;;;;;10.86;56.42;100338.69;5054825;28;20025;-65
2022/10/22 07:30:35;;;;;;;10.75;6.40;;;;;;;10.84;56.03;100331.72;5050982;28;20460;-64
2022/10/22 07:33:01;;;;;;;8.15;5.22;;;;;;;10.98;56.36;100346.78;5063665;28;20021;-63
2022/10/22 07:35:26;;;;;;;17.45;5.88;;;;;;;10.97;56.43;100343.25;5055073;28;20104;-66
2022/10/22 07:37:52;;;;;;;10.50;5.00;;;;;;;10.96;55.92;100346.91;5054929;28;20525;-64
2022/10/22 07:40:17;;;;;;;12.75;6.53;;;;;;;10.99;55.14;100346.66;5054896;28;20029;-65
2022/10/22 07:42:43;;;;;;;12.25;5.72;;;;;;;11.06;54.66;100342.56;5054128;28;20050;-65
2022/10/22 07:45:08;;;;;;;12.13;5.63;;;;;;;11.01;54.54;100341.22;5047340;28;20033;-64
2022/10/22 07:47:34;;;;;;;8.15;5.55;;;;;;;10.85;55.04;100344.13;5069923;28;20393;-63
2022/10/22 07:49:59;;;;;;;13.93;6.97;;;;;;;10.66;55.43;100340.16;5036266;28;20420;-65
2022/10/22 07:52:26;;;;;;;10.05;6.85;;;;;;;10.53;55.55;100350.91;5055205;28;20431;-65
2022/10/22 07:54:51;;;;;;;13.30;7.13;;;;;;;10.40;56.51;100342.00;5054851;28;20032;-64
2022/10/22 07:57:16;;;;;;;15.57;7.82;;;;;;;10.27;57.00;100339.34;5050804;28;20106;-63
2022/10/22 07:59:42;;;;;;;14.77;6.95;;;;;;;10.15;57.02;100341.94;5054334;28;20104;-64
2022/10/22 08:02:10;;;;;;;16.17;7.93;;;;;;;10.17;57.53;100344.47;5054876;28;20025;-63
2022/10/22 08:04:35;;;;;;;10.43;7.47;;;;;;;10.12;57.21;100341.28;5052763;28;20033;-64
2022/10/22 08:07:01;;;;;;;15.57;7.40;;;;;;;10.20;56.71;100336.22;5054317;28;20447;-63
2022/10/22 08:09:26;;;;;;;10.90;6.50;;;;;;;10.28;56.20;100341.03;5054252;28;20333;-65
2022/10/22 08:11:52;;;;;;;8.00;5.55;;;;;;;10.37;55.92;100340.41;5069659;28;20106;-64
2022/10/22 08:14:17;;;;;;;8.07;5.43;;;;;;;10.42;55.84;100329.38;5052011;28;20031;-65
2022/10/22 08:16:43;;;;;;;9.68;5.95;;;;;;;10.42;55.83;100338.28;5054006;28;20059;-64
2022/10/22 08:19:09;;;;;;;10.60;4.50;;;;;;;10.22;55.54;100312.06;5053707;28;20505;-65
2022/10/22 08:21:34;;;;;;;6.95;4.22;;;;;;;10.29;55.47;100332.06;5036778;28;20025;-61
2022/10/22 08:24:00;;;;;;;10.68;4.20;;;;;;;10.29;55.57;100343.63;5051251;28;20086;-65
2022/10/22 08:26:25;;;;;;;11.10;4.03;;;;;;;10.28;55.90;100335.69;5053798;28;20462;-65
2022/10/22 08:28:51;;;;;;;8.27;4.22;;;;;;;10.36;56.24;100344.03;5053815;28;20029;-62
2022/10/22 08:31:16;;;;;;;12.07;4.55;;;;;;;10.31;55.83;100335.47;5053840;28;20064;-62
2022/10/22 08:33:42;;;;;;;8.20;4.50;;;;;;;10.33;55.81;100346.91;5053153;28;20113;-62
2022/10/22 08:36:08;;;;;;;6.53;2.95;;;;;;;10.23;55.91;100349.41;5053629;28;20021;-62
2022/10/22 08:38:34;;;;;;;8.45;3.67;;;;;;;10.04;55.95;100340.00;5053753;28;20100;-63
2022/10/22 08:41:08;;;;;;;9.57;3.67;;;;;;;10.03;56.84;100343.66;5053386;28;20053;-62
2022/10/22 08:43:49;;;;;;;14.57;3.37;;;;;;;10.03;56.73;100346.31;5051842;28;20065;-61
2022/10/22 08:46:53;;;;;;;9.70;3.10;;;;;;;9.92;57.41;100346.22;5051926;28;20766;-65
2022/10/22 08:49:33;;;;;;;7.55;3.40;;;;;;;9.84;56.87;100348.56;5029927;28;20485;-68
2022/10/22 08:51:59;;;;;;;9.10;3.95;;;;;;;9.72;57.06;100352.94;5053230;28;20123;-68
2022/10/22 08:54:52;;;;;;;5.47;3.55;;;;;;;9.81;57.61;100349.63;5052599;28;20036;-67
2022/10/22 08:57:23;;;;;;;6.72;4.10;;;;;;;9.57;58.33;100323.63;5051027;28;20448;-67
2022/10/22 08:59:59;;;;;;;6.38;3.67;;;;;;;9.74;57.55;100337.66;5050325;28;20173;-68
2022/10/22 09:02:57;;;;;;;6.15;4.07;;;;;;;9.97;57.66;100349.41;5052466;28;20474;-68
2022/10/22 09:05:42;;;;;;;5.57;4.32;;;;;;;10.06;57.08;100347.91;5025981;28;20037;-64
2022/10/22 09:08:11;;;;;;;4.93;4.10;;;;;;;10.10;56.51;100346.72;5050562;28;20029;-66
2022/10/22 09:10:42;;;;;;;7.47;4.63;;;;;;;10.17;55.72;100333.78;5046807;28;20119;-64
2022/10/22 09:13:11;;;;;;;6.95;4.60;;;;;;;10.30;55.58;100345.34;5049803;28;20021;-62
2022/10/22 09:15:37;;;;;;;10.68;4.25;;;;;;;10.30;55.99;100344.47;5053120;28;20041;-63
2022/10/22 09:18:11;;;;;;;8.48;4.57;;;;;;;10.39;55.42;100342.97;5052803;28;20359;-63
2022/10/22 09:20:47;;;;;;;8.27;5.13;;;;;;;10.31;55.72;100332.78;5049647;28;20021;-62
2022/10/22 09:23:26;;;;;;;;;;;;;;;10.72;55.58;100344.19;5048416;28;20079;-62
2022/10/22 09:25:51;;;;;;;8.00;5.05;;;;;;;10.44;55.03;100336.34;5051999;28;19916;-66
2022/10/22 09:28:17;;;;;;;8.23;4.50;;;;;;;10.37;55.70;100332.38;5052852;28;20502;-64
2022/10/22 09:30:44;;;;;;;10.65;4.65;;;;;;;10.40;55.26;100336.63;5052045;28;20474;-64
2022/10/22 09:33:13;;;;;;;14.75;5.20;;;;;;;10.35;55.50;100336.97;5052207;28;20108;-65
2022/10/22 09:36:02;;;;;;;9.63;5.15;;;;;;;10.40;55.93;100329.50;5052507;28;20454;-65
2022/10/22 09:38:31;;;;;;;7.38;4.88;;;;;;;10.37;55.29;100340.41;5051987;28;20189;-65
2022/10/22 09:40:59;;;;;;;7.68;4.57;;;;;;;10.29;55.75;100329.38;5052416;28;20035;-63
2022/10/22 09:43:25;;;;;;;8.55;4.40;;;;;;;10.09;55.88;100315.59;5049729;28;20029;-66
2022/10/22 09:46:03;;;;;;;8.65;4.35;;;;;;;10.24;56.25;100334.22;5052085;28;20028;-66
2022/10/22 09:48:36;;;;;;;8.00;4.75;;;;;;;10.13;56.39;100338.50;5048432;28;20033;-65
2022/10/22 09:51:10;;;;;;;7.95;4.65;;;;;;;10.08;56.05;100329.94;5067893;28;20359;-63
2022/10/22 09:53:40;;;;;;;10.77;5.13;;;;;;;10.08;56.21;100337.13;5052158;28;20110;-64
2022/10/22 09:56:22;;;;;;;9.73;4.47;;;;;;;10.18;57.03;100335.50;5052384;28;20041;-65
2022/10/22 09:58:50;;;;;;;10.60;5.13;;;;;;;10.03;56.58;100324.06;5046019;28;20120;-67
2022/10/22 10:01:22;;;;;;;10.13;4.90;;;;;;;10.12;56.70;100327.91;5046865;28;20432;-68
2022/10/22 10:03:49;;;;;;;7.13;4.25;;;;;;;10.09;56.48;100333.47;5052062;28;20112;-68
2022/10/22 10:06:22;;;;;;;8.60;4.20;;;;;;;10.16;56.48;100327.59;5052767;28;20458;-69
2022/10/22 10:08:48;;;;;;;8.98;5.00;;;;;;;10.07;56.56;100320.19;5038546;28;20120;-69
2022/10/22 10:11:48;;;;;;;10.38;5.47;;;;;;;10.10;56.29;100317.28;5047685;28;20515;-69
2022/10/22 10:14:26;;;;;;;11.57;5.80;;;;;;;10.12;56.36;100309.19;5035295;28;20869;-68
2022/10/22 10:16:54;;;;;;;12.25;5.47;;;;;;;10.02;56.52;100308.97;5036483;28;20025;-69
2022/10/22 10:19:25;;;;;;;7.00;5.65;;;;;;;10.07;56.65;100316.69;5040817;28;20376;-70
2022/10/22 10:21:51;;;;;;;9.27;5.22;;;;;;;10.05;57.00;100324.81;5036090;28;20111;-67
2022/10/22 10:24:19;;;;;;;8.90;5.88;;;;;;;10.07;56.60;100316.69;5051729;28;20111;-69
2022/10/22 10:26:59;;;;;;;6.90;5.38;;;;;;;10.16;57.10;100322.25;5050923;28;20934;-68
2022/10/22 10:29:43;;;;;;;7.47;5.90;;;;;;;10.19;57.06;100319.34;5052440;28;20078;-69
2022/10/22 10:32:20;;;;;;;8.82;5.40;;;;;;;10.28;56.83;100319.63;5052237;28;20041;-69
2022/10/22 10:34:58;;;;;;;9.68;6.78;;;;;;;10.28;55.88;100315.16;5051593;28;20029;-70
2022/10/22 10:37:28;;;;;;;11.65;6.50;;;;;;;10.05;56.05;100284.69;5040936;28;20043;-68
2022/10/22 10:39:59;;;;;;;11.00;6.40;;;;;;;10.18;56.27;100303.38;5032564;28;20414;-68
2022/10/22 10:42:52;;;;;;;7.10;5.85;;;;;;;10.29;56.04;100306.16;5032682;28;20466;-67
2022/10/22 10:45:49;;;;;;;10.10;5.55;;;;;;;10.28;56.09;100296.41;5036423;28;20356;-69
2022/10/22 10:48:23;;;;;;;;;;;;;;;10.63;55.73;100302.91;5037420;28;20044;-68
2022/10/22 10:51:21;;;;;;;8.38;5.05;;;;;;;10.40;55.15;100308.09;5054982;28;19913;-68
2022/10/22 10:54:18;;;;;;;9.93;4.60;;;;;;;10.37;55.42;100302.94;5042278;28;20166;-69
2022/10/22 10:56:50;;;;;;;11.85;5.53;;;;;;;10.18;55.10;100304.25;5054542;28;20039;-69
2022/10/22 10:59:21;;;;;;;8.20;5.43;;;;;;;10.05;55.69;100303.41;5051741;28;20033;-69
2022/10/22 11:02:14;;;;;;;9.50;5.68;;;;;;;9.97;55.87;100292.41;5035062;28;20040;-71
2022/10/22 11:04:53;;;;;;;7.13;5.43;;;;;;;9.97;56.29;100295.06;5034975;28;20095;-68
2022/10/22 11:07:28;;;;;;;12.50;5.53;;;;;;;9.89;56.22;100288.47;5036357;28;20037;-68
2022/10/22 11:10:01;;;;;;;7.53;5.60;;;;;;;9.87;55.97;100285.00;5036125;28;20032;-68
2022/10/22 11:12:50;;;;;;;11.05;5.57;;;;;;;9.84;56.62;100261.16;5054562;28;20048;-68
2022/10/22 11:15:23;;;;;;;13.38;5.78;;;;;;;10.01;56.52;100291.22;5051776;28;20199;-68
2022/10/22 11:17:50;;;;;;;12.88;5.70;;;;;;;9.94;56.28;100281.91;5055390;28;20028;-67
2022/10/22 11:20:34;;;;;;;11.30;5.40;;;;;;;10.00;56.36;100290.34;5035918;28;20045;-69
2022/10/22 11:23:13;;;;;;;13.27;6.40;;;;;;;10.05;56.70;100282.88;5036085;28;20042;-68
2022/10/22 11:25:45;;;;;;;14.38;5.90;;;;;;;10.04;56.41;100281.16;5036303;28;20029;-68
2022/10/22 11:28:24;;;;;;;9.10;5.50;;;;;;;10.06;56.28;100281.03;5055699;28;20475;-68
2022/10/22 11:30:58;;;;;;;12.38;5.90;;;;;;;10.05;56.49;100282.00;5054533;28;20036;-67
2022/10/22 11:33:32;;;;;;;11.90;5.72;;;;;;;9.99;56.54;100277.09;5055043;28;20025;-70
2022/10/22 11:36:01;;;;;;;9.32;5.22;;;;;;;9.95;56.08;100272.94;5053972;28;20123;-69
2022/10/22 11:38:27;;;;;;;8.73;5.05;;;;;;;9.93;56.28;100272.19;5055509;28;20064;-68
2022/10/22 11:41:13;;;;;;;16.50;5.22;;;;;;;10.08;56.37;100270.22;5065205;28;20033;-70
2022/10/22 11:43:53;;;;;;;14.90;5.25;;;;;;;10.07;56.54;100273.88;5034577;28;20065;-68